Accueil
METAR-TAF:

METAR-TAF

Aéroports :

Gloucester, Angleterre

Aéroport du Gloucestershire

latitude: 51-54N, longitude: 002-10W, altitude: 29 m

Observation

Le bulletin a été fait il y a 12 heures et 20 minutes, à 18:20 UTC
Vent 6 kt de sud/sud-est
Température 22°C
Humidité 53%
Pression 1013 hPa
Visibilité 10 km ou plus
Nuages épars à une hauteur de 4500 ft

METAR: EGBJ 211820Z 16006KT 9999 SCT045 22/12 Q1013

Heure: 07:40 (06:40 UTC)

Prévision

Le bulletin a été fait il y a 16 heures et 39 minutes, à 14:01 UTC
Prévision valable du 21 à 15 UTC au 21 à 19 UTC
Vent 3 kt de sud/sud-est
Visibilité 10 km ou plus
Quelques nuages à une hauteur de 4500 ft
Probabilité 30% :
Temporairement
du 21 à 15 UTC au 21 à 19 UTC
Visibilité: 5000 m
fortes averses de pluie, orage, grêle

TAF: EGBJ 211401Z 2115/2119 16003KT 9999 FEW045 PROB30 TEMPO 2115/2119 5000 +SHRA TSGR

Observations et prévisions météorologiques de plus de 4000 aéroports (messages METAR et TAF).

Les stations disponibles sont représentées par des disques jaunes et rouges sur la carte.

Passer la souris dessus pour voir le nom de la station.

Cliquer dessus pour voir les observations et prévisions météorologiques.

Pour changer de carte: cliquez sur les boutons verts avec une croix noire pour zoomer, sur le bouton vert avec un tiret pour effectuer un zoom arrière, ou sur les flèches vertes pour les cartes adjacentes.


METAR-TAF: